Terminal Aerodrome Forecast
Issued by NWS Cleveland, OH

Home | Current Version | Previous Version | Graphics & Text | Print | Product List | Glossary Off
Versions: 1 2 3 4 5 6 7 8 9 10 11 12 13 14 15 16

000
FTUS41 KCLE 250714 AAA
TAFTOL
TAF AMD
KTOL 250714Z 2507/2606 22006KT P6SM VCTS SCT060CB BKN150
      TEMPO 2507/2509 25015KT 2SM -TSRA SCT020 BKN060CB OVC150
     FM250900 25010KT P6SM VCSH BKN060 OVC120
      TEMPO 2510/2513 -SHRA BKN040 OVC080
     FM251400 27008KT P6SM SCT035 BKN100
     FM251800 28010KT P6SM SCT250=

USA.gov is the U.S. government's official web portal to all federal, state and local government web resources and services.